Kezdőlap
METAR-TAF:

METAR-TAF

Repülőterek :

Ohrid repülőtér

Ohrid, Macedónia

földrajzi szélesség: 41-07N, földrajzi hosszúság: 020-48E, magasság: 760 m

Jelenlegi meteorológiai megfigyelések

A jelentés 7 órával és 23 perccel ezelõtt készült, 20:00 UTC
Északnyugati szél 3 kt
Hőmérséklet 1°C
Páratartalom 75%
Légköri nyomás 1023 hPa
Látótávolság 10 km, vagy több
felhőtlen 1500 m magasságban, és nincs gomolyfelhõ

METAR: LWOH 232000Z 31003KT CAVOK 01/M03 Q1023

Idő: 04:23 (03:23 UTC)

Előrejelzés

A jelentés 53 perccel ezelõtt készült, 02:30 UTC
Az előrejelzés 24-én 03 óra UTC és 25-én 03 óra UTC között érvényes
Különbözõ irányokból fújó szél 2 kt
Látótávolság 10 km, vagy több
Szórványos felhőzet 5000 lábon

TAF: LWOH 240230Z 2403/2503 VRB02KT 9999 SCT050

Meteorológiai megfigyelések és előrejelzések több, mint 4000 repülőtéren (METAR és TAF jelentéseket).

A térképen piros és sárga pontok jelzik az elérhető meteorológiai állomásokat.

Mozgassa az egeret a pont fölött, hogy megjelenjen az állomás neve.

Azután kattintson az időjárási megfigyelések és előrejelzések megtekintéséhez.

A térkép megváltoztatása: kattintson a fekete keresztel jelölt zöld gombra ráközelítéshez, a vonallal jelölt zöld gombra távolításhoz, vagy a zöld nyilakra a szomszédos térképek eléréséhez.


METAR-TAF: